Accueil
METAR-TAF:

METAR-TAF

Aéroports :

Aéroport international de Bonriki

Tarawa, Kiribati

latitude: 01-21N, longitude: 172-55E, altitude: 2 m

Observation

Le bulletin a été fait il y a 16 minutes, à 14:00 UTC
Vent 5 kt de est/sud-est
Température 29°C
Humidité 84%
Pression 1006 hPa
Visibilité 10 km ou plus
Quelques nuages à une hauteur de 1700 ft, Cumulonimbus.
Nuages épars à une hauteur de 1800 ft, Cumulus congestus.
Nuages fragmentés à une hauteur de 10000 ft

METAR: NGTA 161400Z 12005KT 9999 FEW017CB SCT018TCU BKN100 29/26 Q1006

Heure: 04:16 (14:16 UTC)

Prévision

Le bulletin a été fait il y a 2 heures et 53 minutes, à 11:23 UTC
Prévision valable du 16 à 12 UTC au 17 à 12 UTC
Vent 5 kt de sud-est
Visibilité 10 km ou plus
Nuages épars à une hauteur de 1800 ft

TAF: NGTA 161123Z 1612/1712 14005KT 9999 SCT018

Observations et prévisions météorologiques de plus de 4000 aéroports (messages METAR et TAF).

Les stations disponibles sont représentées par des disques jaunes et rouges sur la carte.

Passer la souris dessus pour voir le nom de la station.

Cliquer dessus pour voir les observations et prévisions météorologiques.

Pour changer de carte: cliquez sur les boutons verts avec une croix noire pour zoomer, sur le bouton vert avec un tiret pour effectuer un zoom arrière, ou sur les flèches vertes pour les cartes adjacentes.


METAR-TAF: